createdAt,value
2023-05-10T00:00:07.130Z,4.55
2023-05-10T00:02:41.786Z,4.70
2023-05-10T00:05:10.333Z,4.22
2023-05-10T00:07:38.283Z,4.28
2023-05-10T00:10:06.523Z,4.05
2023-05-10T00:12:34.490Z,3.85
2023-05-10T00:15:03.980Z,3.80
2023-05-10T00:17:34.827Z,3.33
2023-05-10T00:20:02.959Z,3.55
2023-05-10T00:22:32.906Z,3.83
2023-05-10T00:25:01.052Z,4.25
2023-05-10T00:27:29.277Z,3.95
2023-05-10T00:29:57.104Z,3.90
2023-05-10T00:32:24.960Z,3.40
2023-05-10T00:34:53.229Z,3.58
2023-05-10T00:37:21.080Z,3.40
2023-05-10T00:39:48.904Z,3.03
2023-05-10T00:42:16.796Z,3.55
2023-05-10T00:44:47.839Z,3.75
2023-05-10T00:47:17.149Z,3.15
2023-05-10T00:49:45.319Z,3.75
2023-05-10T00:52:13.104Z,3.22
2023-05-10T00:54:41.006Z,3.38
2023-05-10T00:57:08.902Z,2.88
2023-05-10T00:59:36.790Z,3.15
2023-05-10T01:02:05.056Z,3.40
2023-05-10T01:04:33.056Z,2.80
2023-05-10T01:07:00.995Z,2.92
2023-05-10T01:09:29.062Z,2.90
2023-05-10T01:11:57.854Z,3.22
2023-05-10T01:14:26.880Z,2.83
2023-05-10T01:16:55.397Z,2.90
2023-05-10T01:19:26.666Z,2.63
2023-05-10T01:22:24.182Z,3.00
2023-05-10T01:24:58.171Z,2.92
2023-05-10T01:27:25.901Z,3.35
2023-05-10T01:30:15.846Z,2.90
2023-05-10T01:32:56.505Z,2.85
2023-05-10T01:35:28.221Z,2.53
2023-05-10T01:38:17.234Z,2.78
2023-05-10T01:41:19.361Z,2.65
2023-05-10T01:43:59.079Z,2.85
2023-05-10T01:46:38.177Z,3.10
2023-05-10T01:49:15.504Z,3.13
2023-05-10T01:51:49.429Z,2.85
2023-05-10T01:54:19.114Z,2.78
2023-05-10T01:56:49.465Z,2.67
2023-05-10T01:59:19.749Z,2.88
2023-05-10T02:01:48.788Z,2.90
2023-05-10T02:04:18.855Z,2.90
2023-05-10T02:06:49.546Z,2.90
2023-05-10T02:09:17.930Z,2.83
2023-05-10T02:11:45.678Z,2.60
2023-05-10T02:14:14.290Z,3.08
2023-05-10T02:16:42.781Z,2.65
2023-05-10T02:19:12.543Z,2.47
2023-05-10T02:22:01.057Z,3.42
2023-05-10T02:24:29.576Z,2.75
2023-05-10T02:26:57.595Z,2.92
2023-05-10T02:29:26.956Z,2.92
2023-05-10T02:31:56.591Z,2.97
2023-05-10T02:34:27.141Z,3.15
2023-05-10T02:36:56.452Z,3.20
2023-05-10T02:39:25.841Z,3.08
2023-05-10T02:41:53.810Z,3.10
2023-05-10T02:44:21.972Z,3.00
2023-05-10T02:46:49.778Z,4.68
2023-05-10T02:49:17.964Z,7.03
2023-05-10T02:51:50.593Z,5.00
2023-05-10T02:54:24.354Z,4.22
2023-05-10T02:56:56.038Z,3.10
2023-05-10T02:59:23.827Z,3.53
2023-05-10T03:01:51.717Z,3.25
2023-05-10T03:04:20.042Z,3.15
2023-05-10T03:06:48.163Z,3.10
2023-05-10T03:09:16.807Z,4.10
2023-05-10T03:11:50.619Z,3.08
2023-05-10T03:14:21.461Z,3.80
2023-05-10T03:17:16.695Z,3.15
2023-05-10T03:19:52.063Z,3.97
2023-05-10T03:22:29.130Z,3.50
2023-05-10T03:25:01.705Z,3.17
2023-05-10T03:27:41.495Z,3.47
2023-05-10T03:30:10.547Z,3.28
2023-05-10T03:32:38.928Z,3.05
2023-05-10T03:35:15.365Z,3.33
2023-05-10T03:37:43.464Z,3.95
2023-05-10T03:40:11.740Z,3.72
2023-05-10T03:42:42.511Z,3.17
2023-05-10T03:45:10.860Z,3.53
2023-05-10T03:47:38.681Z,3.03
2023-05-10T03:50:07.459Z,3.45
2023-05-10T03:52:35.430Z,3.42
2023-05-10T03:55:04.771Z,3.83
2023-05-10T03:57:32.680Z,3.17
2023-05-10T04:00:01.559Z,3.03
2023-05-10T04:02:34.080Z,3.40
2023-05-10T04:05:02.397Z,2.78
2023-05-10T04:07:31.070Z,2.85
2023-05-10T04:09:58.991Z,3.25
2023-05-10T04:12:26.824Z,3.08
2023-05-10T04:14:54.856Z,3.33
2023-05-10T04:17:22.729Z,2.85
2023-05-10T04:19:50.709Z,3.03
2023-05-10T04:22:18.682Z,2.97
2023-05-10T04:24:46.577Z,3.55
2023-05-10T04:27:14.383Z,3.20
2023-05-10T04:29:46.933Z,3.35
2023-05-10T04:32:14.719Z,3.05
2023-05-10T04:34:42.536Z,3.13
2023-05-10T04:37:10.505Z,3.50
2023-05-10T04:39:40.225Z,3.38
2023-05-10T04:42:09.538Z,3.08
2023-05-10T04:44:37.514Z,4.90
2023-05-10T04:47:05.775Z,5.70
2023-05-10T04:49:33.562Z,3.80
2023-05-10T04:52:01.320Z,4.35
2023-05-10T04:54:29.312Z,2.67
2023-05-10T04:56:57.152Z,5.10
2023-05-10T04:59:24.928Z,2.85
2023-05-10T05:01:52.858Z,3.00
2023-05-10T05:04:24.630Z,4.45
2023-05-10T05:06:53.923Z,2.95
2023-05-10T05:09:22.046Z,4.32
2023-05-10T05:11:50.087Z,4.22
2023-05-10T05:14:17.859Z,3.53
2023-05-10T05:16:45.686Z,2.63
2023-05-10T05:19:13.479Z,3.15
2023-05-10T05:21:41.239Z,3.80
2023-05-10T05:24:10.063Z,2.97
2023-05-10T05:26:38.009Z,1.80
2023-05-10T05:29:05.875Z,2.08
2023-05-10T05:31:33.805Z,1.80
2023-05-10T05:34:01.602Z,1.73
2023-05-10T05:36:29.565Z,2.67
2023-05-10T05:38:57.329Z,2.05
2023-05-10T05:41:25.810Z,2.00
2023-05-10T05:43:53.964Z,1.70
2023-05-10T05:46:21.808Z,2.55
2023-05-10T05:48:49.714Z,1.98
2023-05-10T05:51:17.494Z,1.75
2023-05-10T05:53:45.442Z,1.45
2023-05-10T05:56:13.267Z,1.73
2023-05-10T05:58:41.163Z,1.55
2023-05-10T06:01:10.103Z,1.33
2023-05-10T06:03:38.012Z,1.73
2023-05-10T06:06:06.077Z,1.55
2023-05-10T06:08:35.024Z,2.63
2023-05-10T06:11:03.258Z,1.58
2023-05-10T06:13:33.691Z,1.40
2023-05-10T06:16:02.562Z,1.40
2023-05-10T06:18:30.382Z,1.90
2023-05-10T06:20:58.646Z,1.90
2023-05-10T06:23:26.635Z,1.40
2023-05-10T06:25:54.640Z,1.70
2023-05-10T06:28:22.521Z,2.20
2023-05-10T06:30:52.849Z,1.33
2023-05-10T06:33:20.746Z,1.58
2023-05-10T06:35:48.499Z,1.40
2023-05-10T06:38:16.346Z,1.70
2023-05-10T06:40:44.564Z,1.20
2023-05-10T06:43:13.648Z,1.38
2023-05-10T06:45:42.151Z,2.63
2023-05-10T06:48:10.270Z,2.00
2023-05-10T06:50:38.239Z,1.30
2023-05-10T06:53:06.222Z,1.42
2023-05-10T06:55:34.514Z,1.65
2023-05-10T06:58:02.320Z,1.60
2023-05-10T07:00:30.193Z,1.40
2023-05-10T07:02:58.084Z,2.13
2023-05-10T07:05:26.049Z,1.55
2023-05-10T07:07:53.904Z,1.65
2023-05-10T07:10:21.848Z,1.35
2023-05-10T07:12:49.802Z,2.08
2023-05-10T07:15:18.439Z,1.15
2023-05-10T07:17:46.759Z,1.20
2023-05-10T07:20:14.712Z,1.42
2023-05-10T07:22:44.606Z,1.60
2023-05-10T07:25:12.452Z,1.05
2023-05-10T07:27:40.194Z,1.27
2023-05-10T07:30:08.755Z,1.30
2023-05-10T07:32:36.748Z,1.40
2023-05-10T07:35:04.872Z,0.90
2023-05-10T07:37:32.736Z,0.90
2023-05-10T07:40:03.180Z,1.20
2023-05-10T07:42:32.870Z,1.30
2023-05-10T07:45:02.995Z,0.88
2023-05-10T07:47:52.440Z,0.90
2023-05-10T07:50:20.442Z,0.90
2023-05-10T07:52:49.261Z,1.00
2023-05-10T07:55:17.299Z,0.90
2023-05-10T07:57:45.240Z,1.00
2023-05-10T08:00:14.756Z,1.02
2023-05-10T08:02:43.100Z,1.10
2023-05-10T08:05:11.710Z,1.10
2023-05-10T08:07:39.545Z,1.20
2023-05-10T08:10:08.375Z,1.08
2023-05-10T08:12:36.333Z,1.30
2023-05-10T08:15:04.741Z,10.93
2023-05-10T08:17:33.644Z,1.92
2023-05-10T08:20:01.520Z,1.73
2023-05-10T08:22:32.065Z,1.30
2023-05-10T08:24:59.821Z,1.10
2023-05-10T08:27:27.604Z,1.13
2023-05-10T08:29:55.432Z,1.10
2023-05-10T08:32:23.258Z,0.90
2023-05-10T08:34:51.137Z,1.10
2023-05-10T08:37:19.126Z,0.80
2023-05-10T08:39:49.071Z,1.00
2023-05-10T08:42:21.880Z,1.00
2023-05-10T08:44:49.885Z,1.10
2023-05-10T08:47:19.523Z,1.00
2023-05-10T08:49:50.206Z,1.10
2023-05-10T08:52:19.190Z,1.17
2023-05-10T08:54:49.051Z,1.38
2023-05-10T08:57:16.971Z,0.90
2023-05-10T08:59:45.239Z,0.95
2023-05-10T09:02:16.085Z,1.08
2023-05-10T09:07:13.756Z,1.30
2023-05-10T09:09:41.712Z,1.08
2023-05-10T09:12:12.271Z,0.80
2023-05-10T09:14:40.337Z,1.27
2023-05-10T09:17:08.422Z,1.10
2023-05-10T09:19:37.441Z,1.08
2023-05-10T09:22:08.194Z,1.13
2023-05-10T09:24:36.252Z,0.80
2023-05-10T09:27:04.298Z,1.00
2023-05-10T09:29:42.922Z,0.90
2023-05-10T09:32:10.898Z,1.05
2023-05-10T09:34:41.279Z,1.50
2023-05-10T09:37:09.407Z,1.38
2023-05-10T09:39:42.382Z,1.40
2023-05-10T09:44:39.331Z,1.10
2023-05-10T09:47:07.320Z,1.40
2023-05-10T09:49:36.152Z,1.05
2023-05-10T09:52:05.500Z,1.50
2023-05-10T09:54:33.883Z,1.48
2023-05-10T09:57:02.416Z,1.58
2023-05-10T09:59:30.667Z,1.27
2023-05-10T10:01:59.501Z,1.25
2023-05-10T10:04:30.908Z,1.40
2023-05-10T10:07:05.664Z,1.25
2023-05-10T10:09:36.413Z,1.20
2023-05-10T10:12:04.969Z,1.55
2023-05-10T10:14:32.950Z,1.38
2023-05-10T10:17:07.240Z,1.20
2023-05-10T10:19:39.259Z,1.30
2023-05-10T10:22:07.399Z,1.40
2023-05-10T10:24:35.363Z,1.70
2023-05-10T10:27:15.375Z,2.10
2023-05-10T10:30:00.018Z,3.45
2023-05-10T10:33:13.588Z,1.55
2023-05-10T10:35:48.851Z,2.03
2023-05-10T10:38:17.671Z,1.98
2023-05-10T10:40:45.515Z,1.50
2023-05-10T10:43:27.123Z,1.67
2023-05-10T10:46:15.173Z,1.48
2023-05-10T10:48:49.010Z,1.52
2023-05-10T10:51:16.840Z,1.35
2023-05-10T10:53:45.242Z,1.40
2023-05-10T10:56:16.327Z,1.20
2023-05-10T10:58:55.925Z,1.50
2023-05-10T11:01:23.762Z,1.50
2023-05-10T11:04:06.836Z,1.58
2023-05-10T11:06:36.212Z,1.60
2023-05-10T11:09:12.558Z,1.50
2023-05-10T11:11:56.340Z,1.73
2023-05-10T11:14:24.584Z,1.42
2023-05-10T11:16:52.759Z,2.67
2023-05-10T11:19:21.199Z,1.42
2023-05-10T11:21:55.404Z,1.48
2023-05-10T11:24:26.919Z,1.60
2023-05-10T11:26:55.094Z,1.15
2023-05-10T11:29:23.381Z,1.65
2023-05-10T11:31:51.965Z,1.55
2023-05-10T11:34:27.872Z,1.42
2023-05-10T11:36:57.388Z,1.40
2023-05-10T11:39:29.227Z,1.58
2023-05-10T11:41:58.221Z,2.30
2023-05-10T11:44:33.626Z,1.50
2023-05-10T11:47:04.575Z,1.90
2023-05-10T11:49:32.541Z,2.55
2023-05-10T11:52:12.114Z,1.38
2023-05-10T11:54:54.936Z,1.40
2023-05-10T11:57:27.890Z,1.40
2023-05-10T12:02:26.661Z,1.80
2023-05-10T12:04:54.545Z,1.67
2023-05-10T12:07:24.469Z,1.65
2023-05-10T12:10:09.109Z,1.80
2023-05-10T12:12:48.535Z,1.65
2023-05-10T12:15:22.995Z,1.45
2023-05-10T12:17:51.643Z,1.60
2023-05-10T12:20:23.336Z,1.60
2023-05-10T12:23:00.493Z,0.95
2023-05-10T12:25:36.554Z,1.23
2023-05-10T12:28:06.705Z,2.30
2023-05-10T12:30:36.134Z,1.30
2023-05-10T12:33:08.940Z,1.30
2023-05-10T12:35:48.061Z,1.48
2023-05-10T12:38:35.982Z,1.17
2023-05-10T12:41:14.186Z,1.55
2023-05-10T12:43:42.623Z,1.27
2023-05-10T12:46:12.383Z,1.70
2023-05-10T12:48:41.455Z,1.40
2023-05-10T12:51:10.684Z,1.65
2023-05-10T12:53:41.531Z,1.50
2023-05-10T12:56:11.264Z,1.13
2023-05-10T12:58:39.606Z,1.38
2023-05-10T13:01:07.564Z,1.65
2023-05-10T13:03:35.604Z,1.30
2023-05-10T13:06:03.786Z,1.50
2023-05-10T13:08:34.650Z,1.40
2023-05-10T13:11:03.389Z,1.42
2023-05-10T13:13:31.247Z,1.63
2023-05-10T13:15:59.226Z,1.52
2023-05-10T13:18:27.678Z,1.10
2023-05-10T13:20:56.855Z,1.42
2023-05-10T13:23:27.917Z,1.33
2023-05-10T13:25:56.914Z,1.40
2023-05-10T13:28:46.456Z,1.40
2023-05-10T13:31:14.677Z,1.42
2023-05-10T13:33:42.477Z,1.20
2023-05-10T13:36:18.258Z,1.77
2023-05-10T13:41:23.129Z,1.48
2023-05-10T13:43:54.630Z,1.30
2023-05-10T13:46:22.477Z,1.23
2023-05-10T13:48:50.505Z,1.65
2023-05-10T13:51:18.288Z,1.00
2023-05-10T13:53:48.068Z,0.70
2023-05-10T13:56:17.489Z,0.90
2023-05-10T13:58:45.398Z,1.20
2023-05-10T14:01:13.429Z,1.05
2023-05-10T14:03:41.379Z,1.30
2023-05-10T14:06:09.524Z,1.13
2023-05-10T14:08:37.685Z,1.13
2023-05-10T14:11:05.596Z,1.08
2023-05-10T14:13:34.007Z,1.17
2023-05-10T14:16:02.242Z,1.40
2023-05-10T14:18:30.373Z,0.98
2023-05-10T14:20:58.195Z,1.10
2023-05-10T14:23:26.883Z,1.55
2023-05-10T14:25:54.775Z,1.00
2023-05-10T14:28:23.829Z,1.23
2023-05-10T14:30:52.043Z,1.20
2023-05-10T14:33:20.354Z,1.35
2023-05-10T14:35:48.947Z,1.30
2023-05-10T14:38:16.728Z,1.10
2023-05-10T14:40:44.706Z,1.17
2023-05-10T14:43:12.651Z,1.20
2023-05-10T14:45:43.496Z,1.50
2023-05-10T14:48:16.593Z,1.40
2023-05-10T14:50:46.182Z,1.40
2023-05-10T14:53:13.980Z,2.20
2023-05-10T14:55:42.052Z,2.83
2023-05-10T14:58:10.052Z,1.35
2023-05-10T15:00:37.947Z,1.50
2023-05-10T15:03:06.333Z,1.15
2023-05-10T15:05:34.915Z,2.10
2023-05-10T15:08:03.182Z,1.30
2023-05-10T15:10:33.167Z,1.40
2023-05-10T15:13:02.654Z,1.15
2023-05-10T15:15:30.650Z,1.75
2023-05-10T15:17:58.563Z,1.48
2023-05-10T15:20:29.036Z,1.27
2023-05-10T15:25:30.058Z,1.75
2023-05-10T15:27:58.119Z,1.65
2023-05-10T15:30:28.554Z,1.50
2023-05-10T15:32:58.095Z,1.55
2023-05-10T15:35:27.444Z,1.70
2023-05-10T15:37:55.423Z,3.05
2023-05-10T15:40:24.081Z,1.85
2023-05-10T15:42:52.382Z,2.30
2023-05-10T15:45:20.485Z,2.97
2023-05-10T15:47:49.154Z,1.40
2023-05-10T15:50:17.804Z,1.58
2023-05-10T15:52:45.947Z,1.70
2023-05-10T15:55:16.521Z,1.58
2023-05-10T15:57:44.806Z,1.35
2023-05-10T16:00:13.609Z,1.55
2023-05-10T16:02:42.579Z,1.60
2023-05-10T16:05:11.083Z,1.58
2023-05-10T16:07:39.900Z,1.70
2023-05-10T16:10:10.288Z,1.60
2023-05-10T16:12:38.878Z,1.40
2023-05-10T16:15:07.499Z,1.40
2023-05-10T16:17:35.554Z,1.45
2023-05-10T16:20:03.595Z,1.65
2023-05-10T16:22:31.888Z,1.60
2023-05-10T16:24:59.746Z,1.55
2023-05-10T16:27:30.290Z,1.73
2023-05-10T16:29:58.194Z,1.48
2023-05-10T16:32:26.331Z,1.55
2023-05-10T16:34:54.181Z,1.70
2023-05-10T16:37:22.031Z,1.50
2023-05-10T16:39:49.853Z,1.40
2023-05-10T16:42:17.702Z,1.70
2023-05-10T16:44:45.603Z,1.60
2023-05-10T16:47:13.513Z,1.60
2023-05-10T16:49:43.650Z,1.80
2023-05-10T16:52:11.609Z,1.38
2023-05-10T16:54:39.441Z,1.60
2023-05-10T16:57:08.712Z,1.70
2023-05-10T16:59:36.547Z,1.40
2023-05-10T17:02:04.454Z,1.38
2023-05-10T17:04:32.298Z,1.60
2023-05-10T17:07:00.081Z,1.65
2023-05-10T17:09:28.086Z,2.40
2023-05-10T17:11:55.910Z,1.75
2023-05-10T17:14:23.699Z,1.90
2023-05-10T17:16:53.228Z,1.55
2023-05-10T17:19:23.032Z,2.13
2023-05-10T17:21:52.072Z,2.03
2023-05-10T17:24:20.006Z,1.80
2023-05-10T17:26:47.897Z,2.17
2023-05-10T17:29:18.201Z,1.73
2023-05-10T17:31:46.051Z,1.67
2023-05-10T17:34:13.948Z,1.67
2023-05-10T17:36:41.732Z,2.00
2023-05-10T17:39:09.871Z,2.28
2023-05-10T17:41:37.956Z,1.70
2023-05-10T17:44:05.733Z,2.40
2023-05-10T17:46:33.821Z,3.00
2023-05-10T17:49:01.538Z,4.00
2023-05-10T17:51:29.662Z,3.05
2023-05-10T17:53:57.473Z,7.32
2023-05-10T17:56:25.671Z,7.15
2023-05-10T17:58:53.420Z,7.32
2023-05-10T18:01:21.366Z,3.60
2023-05-10T18:03:49.902Z,2.63
2023-05-10T18:06:17.989Z,3.20
2023-05-10T18:08:45.864Z,3.30
2023-05-10T18:11:16.486Z,6.90
2023-05-10T18:13:44.380Z,5.10
2023-05-10T18:16:13.664Z,3.30
2023-05-10T18:18:41.700Z,2.92
2023-05-10T18:21:11.953Z,3.30
2023-05-10T18:23:39.865Z,3.25
2023-05-10T18:26:08.468Z,3.28
2023-05-10T18:28:37.167Z,2.95
2023-05-10T18:31:05.183Z,5.97
2023-05-10T18:33:33.239Z,4.32
2023-05-10T18:36:04.371Z,3.25
2023-05-10T18:38:32.408Z,3.58
2023-05-10T18:41:03.873Z,3.85
2023-05-10T18:43:34.578Z,3.00
2023-05-10T18:46:02.566Z,3.47
2023-05-10T18:48:30.390Z,3.33
2023-05-10T18:50:58.217Z,4.13
2023-05-10T18:53:26.032Z,3.67
2023-05-10T18:56:00.128Z,4.15
2023-05-10T18:58:28.875Z,3.95
2023-05-10T19:00:57.128Z,5.05
2023-05-10T19:03:24.978Z,6.63
2023-05-10T19:05:52.769Z,5.88
2023-05-10T19:08:20.867Z,5.15
2023-05-10T19:10:48.790Z,7.00
2023-05-10T19:13:16.590Z,6.65
2023-05-10T19:15:48.956Z,8.70
2023-05-10T19:18:17.739Z,7.28
2023-05-10T19:20:46.866Z,7.55
2023-05-10T19:23:16.208Z,6.03
2023-05-10T19:25:45.678Z,9.68
2023-05-10T19:28:14.883Z,10.25
2023-05-10T19:30:49.849Z,9.13
2023-05-10T19:33:18.705Z,9.32
2023-05-10T19:35:46.821Z,7.93
2023-05-10T19:38:14.812Z,7.45
2023-05-10T19:40:42.816Z,7.57
2023-05-10T19:43:10.978Z,7.70
2023-05-10T19:45:41.649Z,7.43
2023-05-10T19:48:11.075Z,6.80
2023-05-10T19:50:39.520Z,7.60
2023-05-10T19:53:08.134Z,10.23
2023-05-10T19:55:38.897Z,11.80
2023-05-10T19:58:06.791Z,12.43
2023-05-10T20:00:35.957Z,14.10
2023-05-10T20:03:08.442Z,12.63
2023-05-10T20:05:37.397Z,8.70
2023-05-10T20:08:05.252Z,8.48
2023-05-10T20:10:33.176Z,10.30
2023-05-10T20:13:01.052Z,9.85
2023-05-10T20:15:30.070Z,10.65
2023-05-10T20:17:58.089Z,11.18
2023-05-10T20:20:26.122Z,10.32
2023-05-10T20:22:53.879Z,11.25
2023-05-10T20:25:23.377Z,10.82
2023-05-10T20:27:54.858Z,11.02
2023-05-10T20:30:31.877Z,12.45
2023-05-10T20:33:04.625Z,10.52
2023-05-10T20:35:36.023Z,10.32
2023-05-10T20:38:04.337Z,9.65
2023-05-10T20:40:32.930Z,9.05
2023-05-10T20:43:00.892Z,9.40
2023-05-10T20:45:28.843Z,10.57
2023-05-10T20:47:57.236Z,7.60
2023-05-10T20:50:25.122Z,6.70
2023-05-10T20:52:53.056Z,7.72
2023-05-10T20:55:21.032Z,8.35
2023-05-10T20:57:50.190Z,8.48
2023-05-10T21:00:18.574Z,8.63
2023-05-10T21:02:46.791Z,7.68
2023-05-10T21:05:17.869Z,17.52
2023-05-10T21:07:49.648Z,8.30
2023-05-10T21:10:28.449Z,6.55
2023-05-10T21:12:56.910Z,7.47
2023-05-10T21:15:25.748Z,6.10
2023-05-10T21:17:59.239Z,5.85
2023-05-10T21:20:27.261Z,5.70
2023-05-10T21:22:55.259Z,6.55
2023-05-10T21:25:25.781Z,5.82
2023-05-10T21:27:53.550Z,4.90
2023-05-10T21:30:21.317Z,5.85
2023-05-10T21:32:49.238Z,5.55
2023-05-10T21:35:17.150Z,6.03
2023-05-10T21:37:44.955Z,5.05
2023-05-10T21:40:13.214Z,6.78
2023-05-10T21:42:41.048Z,7.07
2023-05-10T21:45:09.131Z,7.10
2023-05-10T21:47:37.371Z,5.25
2023-05-10T21:50:05.626Z,5.60
2023-05-10T21:52:33.727Z,6.00
2023-05-10T21:55:01.511Z,6.80
2023-05-10T21:57:30.023Z,8.25
2023-05-10T21:59:57.924Z,6.97
2023-05-10T22:02:25.966Z,8.50
2023-05-10T22:04:53.846Z,8.07
2023-05-10T22:07:21.744Z,7.97
2023-05-10T22:09:49.571Z,7.72
2023-05-10T22:12:17.399Z,6.75
2023-05-10T22:14:45.205Z,7.80
2023-05-10T22:17:13.201Z,7.68
2023-05-10T22:19:45.642Z,7.45
2023-05-10T22:22:13.497Z,7.13
2023-05-10T22:24:41.652Z,6.90
2023-05-10T22:27:09.474Z,6.82
2023-05-10T22:29:37.409Z,7.45
2023-05-10T22:32:06.546Z,7.50
2023-05-10T22:34:35.935Z,9.07
2023-05-10T22:37:04.168Z,8.70
2023-05-10T22:39:31.959Z,8.80
2023-05-10T22:41:59.753Z,7.95
2023-05-10T22:44:27.872Z,8.10
2023-05-10T22:46:55.731Z,8.02
2023-05-10T22:49:23.704Z,8.82
2023-05-10T22:51:51.581Z,8.32
2023-05-10T22:54:19.439Z,8.50
2023-05-10T22:56:47.247Z,8.02
2023-05-10T22:59:15.064Z,9.38
2023-05-10T23:01:43.045Z,7.13
2023-05-10T23:04:10.973Z,8.68
2023-05-10T23:06:39.745Z,8.65
2023-05-10T23:09:07.522Z,6.93
2023-05-10T23:11:35.417Z,6.25
2023-05-10T23:14:03.338Z,6.15
2023-05-10T23:16:31.525Z,7.20
2023-05-10T23:18:59.516Z,7.32
2023-05-10T23:21:28.772Z,6.05
2023-05-10T23:23:57.744Z,6.75
2023-05-10T23:26:25.753Z,6.57
2023-05-10T23:28:53.581Z,6.78
2023-05-10T23:31:21.680Z,6.07
2023-05-10T23:33:49.404Z,5.20
2023-05-10T23:36:17.210Z,6.35
2023-05-10T23:38:45.041Z,6.63
2023-05-10T23:41:13.035Z,5.68
2023-05-10T23:43:40.795Z,6.45
2023-05-10T23:46:08.631Z,6.82
2023-05-10T23:48:36.506Z,6.65
2023-05-10T23:51:04.492Z,7.30
2023-05-10T23:53:32.291Z,7.15
2023-05-10T23:56:00.115Z,7.70
2023-05-10T23:58:27.923Z,7.18
